sensor_id;sensor_type;location;lat;lon;timestamp;P1;durP1;ratioP1;P2;durP2;ratioP2
33279;SDS011;20403;43.114;12.434;2023-10-31T00:01:12;23.63;;;4.78;;
33279;SDS011;20403;43.114;12.434;2023-10-31T00:03:37;23.10;;;4.97;;
33279;SDS011;20403;43.114;12.434;2023-10-31T00:06:05;23.38;;;5.20;;
33279;SDS011;20403;43.114;12.434;2023-10-31T00:08:31;22.38;;;4.20;;
33279;SDS011;20403;43.114;12.434;2023-10-31T00:10:56;25.38;;;4.45;;
33279;SDS011;20403;43.114;12.434;2023-10-31T00:13:22;25.58;;;5.80;;
33279;SDS011;20403;43.114;12.434;2023-10-31T00:15:47;30.35;;;4.53;;
33279;SDS011;20403;43.114;12.434;2023-10-31T00:18:13;22.23;;;4.18;;
33279;SDS011;20403;43.114;12.434;2023-10-31T00:20:38;22.40;;;3.92;;
33279;SDS011;20403;43.114;12.434;2023-10-31T00:23:04;34.17;;;5.45;;
33279;SDS011;20403;43.114;12.434;2023-10-31T00:25:29;19.42;;;3.85;;
33279;SDS011;20403;43.114;12.434;2023-10-31T00:27:54;17.75;;;4.35;;
33279;SDS011;20403;43.114;12.434;2023-10-31T00:30:20;28.27;;;4.47;;
33279;SDS011;20403;43.114;12.434;2023-10-31T00:32:46;23.27;;;4.57;;
33279;SDS011;20403;43.114;12.434;2023-10-31T00:35:11;23.25;;;4.60;;
33279;SDS011;20403;43.114;12.434;2023-10-31T00:37:37;23.58;;;4.78;;
33279;SDS011;20403;43.114;12.434;2023-10-31T00:40:05;20.15;;;4.43;;
33279;SDS011;20403;43.114;12.434;2023-10-31T00:42:31;26.95;;;5.20;;
33279;SDS011;20403;43.114;12.434;2023-10-31T00:44:57;24.85;;;4.35;;
33279;SDS011;20403;43.114;12.434;2023-10-31T00:47:22;27.15;;;4.60;;
33279;SDS011;20403;43.114;12.434;2023-10-31T00:49:48;21.10;;;4.40;;
33279;SDS011;20403;43.114;12.434;2023-10-31T00:52:13;24.75;;;4.40;;
33279;SDS011;20403;43.114;12.434;2023-10-31T00:54:39;22.30;;;3.83;;
33279;SDS011;20403;43.114;12.434;2023-10-31T00:57:04;17.10;;;4.78;;
33279;SDS011;20403;43.114;12.434;2023-10-31T00:59:29;17.80;;;4.25;;
33279;SDS011;20403;43.114;12.434;2023-10-31T01:01:55;23.55;;;4.85;;
33279;SDS011;20403;43.114;12.434;2023-10-31T01:04:20;23.15;;;3.92;;
33279;SDS011;20403;43.114;12.434;2023-10-31T01:06:46;19.08;;;3.40;;
33279;SDS011;20403;43.114;12.434;2023-10-31T01:09:11;19.67;;;4.00;;
33279;SDS011;20403;43.114;12.434;2023-10-31T01:11:38;18.25;;;3.17;;
33279;SDS011;20403;43.114;12.434;2023-10-31T01:14:04;16.20;;;3.50;;
33279;SDS011;20403;43.114;12.434;2023-10-31T01:16:29;17.60;;;3.40;;
33279;SDS011;20403;43.114;12.434;2023-10-31T01:18:54;12.88;;;3.10;;
33279;SDS011;20403;43.114;12.434;2023-10-31T01:21:20;15.02;;;3.15;;
33279;SDS011;20403;43.114;12.434;2023-10-31T01:23:45;13.57;;;2.78;;
33279;SDS011;20403;43.114;12.434;2023-10-31T01:26:11;19.70;;;3.05;;
33279;SDS011;20403;43.114;12.434;2023-10-31T01:28:36;10.90;;;3.05;;
33279;SDS011;20403;43.114;12.434;2023-10-31T01:31:01;16.58;;;3.30;;
33279;SDS011;20403;43.114;12.434;2023-10-31T01:33:27;14.40;;;3.00;;
33279;SDS011;20403;43.114;12.434;2023-10-31T01:35:52;11.23;;;2.70;;
33279;SDS011;20403;43.114;12.434;2023-10-31T01:38:18;17.02;;;2.90;;
33279;SDS011;20403;43.114;12.434;2023-10-31T01:40:43;16.30;;;2.45;;
33279;SDS011;20403;43.114;12.434;2023-10-31T01:43:10;15.93;;;3.00;;
33279;SDS011;20403;43.114;12.434;2023-10-31T01:45:36;11.27;;;2.80;;
33279;SDS011;20403;43.114;12.434;2023-10-31T01:48:01;13.38;;;3.03;;
33279;SDS011;20403;43.114;12.434;2023-10-31T01:50:27;18.60;;;2.70;;
33279;SDS011;20403;43.114;12.434;2023-10-31T01:52:53;17.65;;;2.33;;
33279;SDS011;20403;43.114;12.434;2023-10-31T01:55:19;16.85;;;2.80;;
33279;SDS011;20403;43.114;12.434;2023-10-31T01:57:44;13.15;;;2.25;;
33279;SDS011;20403;43.114;12.434;2023-10-31T02:00:12;15.27;;;2.70;;
33279;SDS011;20403;43.114;12.434;2023-10-31T02:02:40;9.38;;;2.80;;
33279;SDS011;20403;43.114;12.434;2023-10-31T02:05:07;17.48;;;2.78;;
33279;SDS011;20403;43.114;12.434;2023-10-31T02:07:32;11.38;;;2.30;;
33279;SDS011;20403;43.114;12.434;2023-10-31T02:09:58;14.43;;;2.80;;
33279;SDS011;20403;43.114;12.434;2023-10-31T02:12:33;12.88;;;3.13;;
33279;SDS011;20403;43.114;12.434;2023-10-31T02:15:01;16.55;;;3.45;;
33279;SDS011;20403;43.114;12.434;2023-10-31T02:17:27;16.10;;;2.30;;
33279;SDS011;20403;43.114;12.434;2023-10-31T02:19:52;13.38;;;3.47;;
33279;SDS011;20403;43.114;12.434;2023-10-31T02:22:18;13.63;;;2.65;;
33279;SDS011;20403;43.114;12.434;2023-10-31T02:24:43;13.43;;;2.10;;
33279;SDS011;20403;43.114;12.434;2023-10-31T02:27:09;13.05;;;3.00;;
33279;SDS011;20403;43.114;12.434;2023-10-31T02:29:34;13.60;;;2.75;;
33279;SDS011;20403;43.114;12.434;2023-10-31T02:32:00;15.10;;;2.58;;
33279;SDS011;20403;43.114;12.434;2023-10-31T02:34:25;16.90;;;2.78;;
33279;SDS011;20403;43.114;12.434;2023-10-31T02:36:51;14.60;;;3.10;;
33279;SDS011;20403;43.114;12.434;2023-10-31T02:39:16;17.38;;;2.95;;
33279;SDS011;20403;43.114;12.434;2023-10-31T02:41:42;12.23;;;2.58;;
33279;SDS011;20403;43.114;12.434;2023-10-31T02:44:08;19.13;;;2.90;;
33279;SDS011;20403;43.114;12.434;2023-10-31T02:46:37;16.88;;;2.63;;
33279;SDS011;20403;43.114;12.434;2023-10-31T02:49:03;13.07;;;2.33;;
33279;SDS011;20403;43.114;12.434;2023-10-31T02:51:29;17.77;;;2.75;;
33279;SDS011;20403;43.114;12.434;2023-10-31T02:53:54;7.43;;;2.35;;
33279;SDS011;20403;43.114;12.434;2023-10-31T02:56:20;13.55;;;3.03;;
33279;SDS011;20403;43.114;12.434;2023-10-31T02:58:45;13.02;;;2.90;;
33279;SDS011;20403;43.114;12.434;2023-10-31T03:01:11;13.77;;;2.47;;
33279;SDS011;20403;43.114;12.434;2023-10-31T03:03:36;12.23;;;1.92;;
33279;SDS011;20403;43.114;12.434;2023-10-31T03:06:02;14.05;;;2.90;;
33279;SDS011;20403;43.114;12.434;2023-10-31T03:08:27;12.15;;;2.33;;
33279;SDS011;20403;43.114;12.434;2023-10-31T03:10:53;8.75;;;2.30;;
33279;SDS011;20403;43.114;12.434;2023-10-31T03:13:19;11.65;;;2.33;;
33279;SDS011;20403;43.114;12.434;2023-10-31T03:15:47;15.32;;;2.50;;
33279;SDS011;20403;43.114;12.434;2023-10-31T03:18:13;14.82;;;2.60;;
33279;SDS011;20403;43.114;12.434;2023-10-31T03:20:43;10.60;;;2.15;;
33279;SDS011;20403;43.114;12.434;2023-10-31T03:23:10;15.10;;;2.55;;
33279;SDS011;20403;43.114;12.434;2023-10-31T03:25:36;12.13;;;2.42;;
33279;SDS011;20403;43.114;12.434;2023-10-31T03:28:01;9.48;;;2.95;;
33279;SDS011;20403;43.114;12.434;2023-10-31T03:30:27;10.35;;;2.10;;
33279;SDS011;20403;43.114;12.434;2023-10-31T03:32:52;14.90;;;2.97;;
33279;SDS011;20403;43.114;12.434;2023-10-31T03:35:18;17.27;;;2.80;;
33279;SDS011;20403;43.114;12.434;2023-10-31T03:37:43;15.18;;;2.80;;
33279;SDS011;20403;43.114;12.434;2023-10-31T03:40:09;18.63;;;3.22;;
33279;SDS011;20403;43.114;12.434;2023-10-31T03:42:34;14.50;;;2.92;;
33279;SDS011;20403;43.114;12.434;2023-10-31T03:45:00;9.88;;;2.78;;
33279;SDS011;20403;43.114;12.434;2023-10-31T03:47:25;14.10;;;3.03;;
33279;SDS011;20403;43.114;12.434;2023-10-31T03:49:51;9.98;;;2.83;;
33279;SDS011;20403;43.114;12.434;2023-10-31T03:52:16;12.68;;;3.03;;
33279;SDS011;20403;43.114;12.434;2023-10-31T03:54:41;15.27;;;3.15;;
33279;SDS011;20403;43.114;12.434;2023-10-31T03:57:07;19.63;;;3.10;;
33279;SDS011;20403;43.114;12.434;2023-10-31T03:59:32;24.10;;;3.28;;
33279;SDS011;20403;43.114;12.434;2023-10-31T04:01:58;19.08;;;3.15;;
33279;SDS011;20403;43.114;12.434;2023-10-31T04:04:23;17.42;;;2.85;;
33279;SDS011;20403;43.114;12.434;2023-10-31T04:06:48;16.88;;;2.95;;
33279;SDS011;20403;43.114;12.434;2023-10-31T04:09:14;13.73;;;2.85;;
33279;SDS011;20403;43.114;12.434;2023-10-31T04:11:39;17.95;;;2.95;;
33279;SDS011;20403;43.114;12.434;2023-10-31T04:14:06;19.55;;;3.53;;
33279;SDS011;20403;43.114;12.434;2023-10-31T04:16:31;11.90;;;2.70;;
33279;SDS011;20403;43.114;12.434;2023-10-31T04:18:57;18.67;;;2.92;;
33279;SDS011;20403;43.114;12.434;2023-10-31T04:21:22;12.98;;;2.80;;
33279;SDS011;20403;43.114;12.434;2023-10-31T04:23:48;29.25;;;3.75;;
33279;SDS011;20403;43.114;12.434;2023-10-31T04:26:13;25.50;;;3.90;;
33279;SDS011;20403;43.114;12.434;2023-10-31T04:28:39;15.15;;;3.00;;
33279;SDS011;20403;43.114;12.434;2023-10-31T04:31:04;20.85;;;3.63;;
33279;SDS011;20403;43.114;12.434;2023-10-31T04:33:30;19.73;;;3.10;;
33279;SDS011;20403;43.114;12.434;2023-10-31T04:35:55;15.77;;;2.85;;
33279;SDS011;20403;43.114;12.434;2023-10-31T04:38:21;15.38;;;3.35;;
33279;SDS011;20403;43.114;12.434;2023-10-31T04:40:46;16.17;;;3.25;;
33279;SDS011;20403;43.114;12.434;2023-10-31T04:43:11;16.33;;;3.05;;
33279;SDS011;20403;43.114;12.434;2023-10-31T04:45:37;23.60;;;3.58;;
33279;SDS011;20403;43.114;12.434;2023-10-31T04:48:02;15.77;;;2.90;;
33279;SDS011;20403;43.114;12.434;2023-10-31T04:50:28;14.02;;;3.17;;
33279;SDS011;20403;43.114;12.434;2023-10-31T04:52:53;14.45;;;2.72;;
33279;SDS011;20403;43.114;12.434;2023-10-31T04:55:19;17.73;;;2.97;;
33279;SDS011;20403;43.114;12.434;2023-10-31T04:57:44;16.70;;;2.47;;
33279;SDS011;20403;43.114;12.434;2023-10-31T05:00:10;18.02;;;3.40;;
33279;SDS011;20403;43.114;12.434;2023-10-31T05:02:36;16.77;;;3.05;;
33279;SDS011;20403;43.114;12.434;2023-10-31T05:05:01;18.48;;;2.88;;
33279;SDS011;20403;43.114;12.434;2023-10-31T05:07:27;17.25;;;3.10;;
33279;SDS011;20403;43.114;12.434;2023-10-31T05:09:52;17.45;;;3.35;;
33279;SDS011;20403;43.114;12.434;2023-10-31T05:12:18;17.92;;;2.65;;
33279;SDS011;20403;43.114;12.434;2023-10-31T05:14:43;19.45;;;3.65;;
33279;SDS011;20403;43.114;12.434;2023-10-31T05:17:08;14.15;;;2.83;;
33279;SDS011;20403;43.114;12.434;2023-10-31T05:19:34;15.15;;;3.30;;
33279;SDS011;20403;43.114;12.434;2023-10-31T05:21:59;17.45;;;3.72;;
33279;SDS011;20403;43.114;12.434;2023-10-31T05:24:25;15.07;;;2.55;;
33279;SDS011;20403;43.114;12.434;2023-10-31T05:26:51;18.35;;;2.60;;
33279;SDS011;20403;43.114;12.434;2023-10-31T05:29:17;14.02;;;2.72;;
33279;SDS011;20403;43.114;12.434;2023-10-31T05:31:42;14.45;;;3.53;;
33279;SDS011;20403;43.114;12.434;2023-10-31T05:34:08;11.93;;;2.40;;
33279;SDS011;20403;43.114;12.434;2023-10-31T05:36:33;14.50;;;2.70;;
33279;SDS011;20403;43.114;12.434;2023-10-31T05:38:59;13.35;;;2.50;;
33279;SDS011;20403;43.114;12.434;2023-10-31T05:41:24;16.83;;;3.15;;
33279;SDS011;20403;43.114;12.434;2023-10-31T05:43:50;12.57;;;3.15;;
33279;SDS011;20403;43.114;12.434;2023-10-31T05:46:15;13.13;;;3.00;;
33279;SDS011;20403;43.114;12.434;2023-10-31T05:48:43;17.98;;;3.13;;
33279;SDS011;20403;43.114;12.434;2023-10-31T05:51:10;17.38;;;3.45;;
33279;SDS011;20403;43.114;12.434;2023-10-31T05:53:37;13.05;;;2.95;;
33279;SDS011;20403;43.114;12.434;2023-10-31T05:56:04;17.05;;;2.80;;
33279;SDS011;20403;43.114;12.434;2023-10-31T05:58:32;10.73;;;2.38;;
33279;SDS011;20403;43.114;12.434;2023-10-31T06:00:57;13.02;;;3.22;;
33279;SDS011;20403;43.114;12.434;2023-10-31T06:03:23;11.07;;;2.47;;
33279;SDS011;20403;43.114;12.434;2023-10-31T06:05:48;18.75;;;3.28;;
33279;SDS011;20403;43.114;12.434;2023-10-31T06:08:14;14.93;;;3.00;;
33279;SDS011;20403;43.114;12.434;2023-10-31T06:10:39;12.52;;;2.92;;
33279;SDS011;20403;43.114;12.434;2023-10-31T06:13:04;19.58;;;3.20;;
33279;SDS011;20403;43.114;12.434;2023-10-31T06:15:30;17.63;;;3.30;;
33279;SDS011;20403;43.114;12.434;2023-10-31T06:17:56;15.18;;;2.53;;
33279;SDS011;20403;43.114;12.434;2023-10-31T06:20:21;13.80;;;3.33;;
33279;SDS011;20403;43.114;12.434;2023-10-31T06:22:47;19.80;;;3.13;;
33279;SDS011;20403;43.114;12.434;2023-10-31T06:25:12;23.40;;;3.78;;
33279;SDS011;20403;43.114;12.434;2023-10-31T06:27:38;17.02;;;3.05;;
33279;SDS011;20403;43.114;12.434;2023-10-31T06:30:03;13.88;;;3.00;;
33279;SDS011;20403;43.114;12.434;2023-10-31T06:32:29;18.95;;;3.00;;
33279;SDS011;20403;43.114;12.434;2023-10-31T06:34:54;16.60;;;2.97;;
33279;SDS011;20403;43.114;12.434;2023-10-31T06:37:20;17.20;;;2.92;;
33279;SDS011;20403;43.114;12.434;2023-10-31T06:39:45;16.83;;;3.60;;
33279;SDS011;20403;43.114;12.434;2023-10-31T06:42:11;19.58;;;2.60;;
33279;SDS011;20403;43.114;12.434;2023-10-31T06:44:36;11.25;;;2.47;;
33279;SDS011;20403;43.114;12.434;2023-10-31T06:47:01;12.55;;;2.58;;
33279;SDS011;20403;43.114;12.434;2023-10-31T06:49:27;12.82;;;2.58;;
33279;SDS011;20403;43.114;12.434;2023-10-31T06:51:52;16.80;;;3.53;;
33279;SDS011;20403;43.114;12.434;2023-10-31T06:54:18;16.48;;;2.85;;
33279;SDS011;20403;43.114;12.434;2023-10-31T06:56:43;13.68;;;3.42;;
33279;SDS011;20403;43.114;12.434;2023-10-31T06:59:08;19.42;;;3.03;;
33279;SDS011;20403;43.114;12.434;2023-10-31T07:01:34;15.13;;;3.05;;
33279;SDS011;20403;43.114;12.434;2023-10-31T07:03:59;17.48;;;2.88;;
33279;SDS011;20403;43.114;12.434;2023-10-31T07:06:25;12.55;;;3.13;;
33279;SDS011;20403;43.114;12.434;2023-10-31T07:08:50;18.25;;;3.70;;
33279;SDS011;20403;43.114;12.434;2023-10-31T07:11:16;18.73;;;3.45;;
33279;SDS011;20403;43.114;12.434;2023-10-31T07:13:41;13.52;;;2.70;;
33279;SDS011;20403;43.114;12.434;2023-10-31T07:16:06;17.10;;;2.65;;
33279;SDS011;20403;43.114;12.434;2023-10-31T07:18:32;17.70;;;2.88;;
33279;SDS011;20403;43.114;12.434;2023-10-31T07:20:57;11.95;;;2.90;;
33279;SDS011;20403;43.114;12.434;2023-10-31T07:23:23;19.23;;;3.20;;
33279;SDS011;20403;43.114;12.434;2023-10-31T07:25:49;18.05;;;3.28;;
33279;SDS011;20403;43.114;12.434;2023-10-31T07:28:14;14.73;;;2.92;;
33279;SDS011;20403;43.114;12.434;2023-10-31T07:30:39;12.48;;;2.92;;
33279;SDS011;20403;43.114;12.434;2023-10-31T07:33:05;15.32;;;3.08;;
33279;SDS011;20403;43.114;12.434;2023-10-31T07:35:30;16.00;;;2.88;;
33279;SDS011;20403;43.114;12.434;2023-10-31T07:37:56;16.52;;;3.53;;
33279;SDS011;20403;43.114;12.434;2023-10-31T07:40:21;18.10;;;3.25;;
33279;SDS011;20403;43.114;12.434;2023-10-31T07:42:47;22.77;;;3.75;;
33279;SDS011;20403;43.114;12.434;2023-10-31T07:45:12;17.40;;;3.15;;
33279;SDS011;20403;43.114;12.434;2023-10-31T07:47:37;8.77;;;1.70;;
33279;SDS011;20403;43.114;12.434;2023-10-31T07:50:03;8.15;;;2.03;;
33279;SDS011;20403;43.114;12.434;2023-10-31T07:52:30;15.23;;;2.65;;
33279;SDS011;20403;43.114;12.434;2023-10-31T07:54:56;10.90;;;1.92;;
33279;SDS011;20403;43.114;12.434;2023-10-31T07:57:21;13.18;;;2.20;;
33279;SDS011;20403;43.114;12.434;2023-10-31T07:59:47;12.70;;;2.58;;
33279;SDS011;20403;43.114;12.434;2023-10-31T08:02:12;9.73;;;1.88;;
33279;SDS011;20403;43.114;12.434;2023-10-31T08:04:38;22.08;;;2.50;;
33279;SDS011;20403;43.114;12.434;2023-10-31T08:07:03;13.05;;;2.05;;
33279;SDS011;20403;43.114;12.434;2023-10-31T08:09:29;13.88;;;2.10;;
33279;SDS011;20403;43.114;12.434;2023-10-31T08:11:54;15.13;;;2.95;;
33279;SDS011;20403;43.114;12.434;2023-10-31T08:14:20;13.25;;;2.20;;
33279;SDS011;20403;43.114;12.434;2023-10-31T08:16:47;15.00;;;2.30;;
33279;SDS011;20403;43.114;12.434;2023-10-31T08:19:12;7.40;;;1.50;;
33279;SDS011;20403;43.114;12.434;2023-10-31T08:21:39;13.77;;;2.10;;
33279;SDS011;20403;43.114;12.434;2023-10-31T08:24:05;7.13;;;2.00;;
33279;SDS011;20403;43.114;12.434;2023-10-31T08:26:31;9.82;;;2.33;;
33279;SDS011;20403;43.114;12.434;2023-10-31T08:28:57;10.32;;;2.40;;
33279;SDS011;20403;43.114;12.434;2023-10-31T08:31:23;11.80;;;2.28;;
33279;SDS011;20403;43.114;12.434;2023-10-31T08:33:48;12.75;;;1.75;;
33279;SDS011;20403;43.114;12.434;2023-10-31T08:36:14;14.38;;;1.98;;
33279;SDS011;20403;43.114;12.434;2023-10-31T08:38:39;9.10;;;1.80;;
33279;SDS011;20403;43.114;12.434;2023-10-31T08:41:05;14.07;;;2.22;;
33279;SDS011;20403;43.114;12.434;2023-10-31T08:43:30;22.65;;;2.33;;
33279;SDS011;20403;43.114;12.434;2023-10-31T08:45:56;17.08;;;2.50;;
33279;SDS011;20403;43.114;12.434;2023-10-31T08:48:21;10.55;;;1.85;;
33279;SDS011;20403;43.114;12.434;2023-10-31T08:50:47;12.30;;;1.98;;
33279;SDS011;20403;43.114;12.434;2023-10-31T08:53:12;12.23;;;2.08;;
33279;SDS011;20403;43.114;12.434;2023-10-31T08:55:38;10.82;;;1.92;;
33279;SDS011;20403;43.114;12.434;2023-10-31T08:58:03;17.17;;;2.00;;
33279;SDS011;20403;43.114;12.434;2023-10-31T09:00:29;11.52;;;2.38;;
33279;SDS011;20403;43.114;12.434;2023-10-31T09:02:54;8.73;;;1.83;;
33279;SDS011;20403;43.114;12.434;2023-10-31T09:05:20;10.85;;;2.05;;
33279;SDS011;20403;43.114;12.434;2023-10-31T09:07:45;9.25;;;1.95;;
33279;SDS011;20403;43.114;12.434;2023-10-31T09:10:11;14.55;;;2.20;;
33279;SDS011;20403;43.114;12.434;2023-10-31T09:12:37;9.07;;;1.73;;
33279;SDS011;20403;43.114;12.434;2023-10-31T09:15:03;13.50;;;2.67;;
33279;SDS011;20403;43.114;12.434;2023-10-31T09:17:29;10.80;;;2.35;;
33279;SDS011;20403;43.114;12.434;2023-10-31T09:19:54;9.15;;;2.10;;
33279;SDS011;20403;43.114;12.434;2023-10-31T09:22:20;13.70;;;2.35;;
33279;SDS011;20403;43.114;12.434;2023-10-31T09:24:45;12.65;;;2.60;;
33279;SDS011;20403;43.114;12.434;2023-10-31T09:27:11;17.42;;;1.98;;
33279;SDS011;20403;43.114;12.434;2023-10-31T09:29:36;13.63;;;2.60;;
33279;SDS011;20403;43.114;12.434;2023-10-31T09:32:02;11.60;;;1.90;;
33279;SDS011;20403;43.114;12.434;2023-10-31T09:34:28;14.68;;;2.22;;
33279;SDS011;20403;43.114;12.434;2023-10-31T09:36:53;10.60;;;2.33;;
33279;SDS011;20403;43.114;12.434;2023-10-31T09:39:19;9.68;;;2.08;;
33279;SDS011;20403;43.114;12.434;2023-10-31T09:41:44;12.98;;;2.10;;
33279;SDS011;20403;43.114;12.434;2023-10-31T09:44:10;9.50;;;1.95;;
33279;SDS011;20403;43.114;12.434;2023-10-31T09:46:35;12.95;;;2.40;;
33279;SDS011;20403;43.114;12.434;2023-10-31T09:49:02;13.52;;;2.85;;
33279;SDS011;20403;43.114;12.434;2023-10-31T09:51:28;16.48;;;2.55;;
33279;SDS011;20403;43.114;12.434;2023-10-31T09:53:54;18.60;;;2.65;;
33279;SDS011;20403;43.114;12.434;2023-10-31T09:56:20;21.15;;;2.53;;
33279;SDS011;20403;43.114;12.434;2023-10-31T09:58:46;10.73;;;2.28;;
33279;SDS011;20403;43.114;12.434;2023-10-31T10:01:12;10.10;;;2.22;;
33279;SDS011;20403;43.114;12.434;2023-10-31T10:03:40;15.07;;;2.85;;
33279;SDS011;20403;43.114;12.434;2023-10-31T10:06:05;14.80;;;2.33;;
33279;SDS011;20403;43.114;12.434;2023-10-31T10:08:31;19.23;;;2.53;;
33279;SDS011;20403;43.114;12.434;2023-10-31T10:10:57;13.57;;;2.75;;
33279;SDS011;20403;43.114;12.434;2023-10-31T10:13:22;18.33;;;2.63;;
33279;SDS011;20403;43.114;12.434;2023-10-31T10:15:49;11.90;;;2.38;;
33279;SDS011;20403;43.114;12.434;2023-10-31T10:18:32;15.35;;;2.50;;
33279;SDS011;20403;43.114;12.434;2023-10-31T10:21:04;15.32;;;2.60;;
33279;SDS011;20403;43.114;12.434;2023-10-31T10:23:31;18.77;;;2.88;;
33279;SDS011;20403;43.114;12.434;2023-10-31T10:25:57;12.40;;;2.67;;
33279;SDS011;20403;43.114;12.434;2023-10-31T10:28:24;9.60;;;1.98;;
33279;SDS011;20403;43.114;12.434;2023-10-31T10:30:50;11.38;;;1.90;;
33279;SDS011;20403;43.114;12.434;2023-10-31T10:33:16;8.60;;;1.98;;
33279;SDS011;20403;43.114;12.434;2023-10-31T10:35:42;6.13;;;1.80;;
33279;SDS011;20403;43.114;12.434;2023-10-31T10:38:16;8.55;;;1.75;;
33279;SDS011;20403;43.114;12.434;2023-10-31T10:40:43;8.68;;;1.52;;
33279;SDS011;20403;43.114;12.434;2023-10-31T10:43:18;9.68;;;1.73;;
33279;SDS011;20403;43.114;12.434;2023-10-31T10:45:46;17.95;;;1.55;;
33279;SDS011;20403;43.114;12.434;2023-10-31T10:48:18;12.77;;;1.50;;
33279;SDS011;20403;43.114;12.434;2023-10-31T10:50:45;5.45;;;1.23;;
33279;SDS011;20403;43.114;12.434;2023-10-31T10:53:22;8.40;;;1.30;;
33279;SDS011;20403;43.114;12.434;2023-10-31T10:55:52;9.48;;;1.55;;
33279;SDS011;20403;43.114;12.434;2023-10-31T10:58:36;6.97;;;1.60;;
33279;SDS011;20403;43.114;12.434;2023-10-31T11:01:06;7.25;;;1.20;;
33279;SDS011;20403;43.114;12.434;2023-10-31T11:03:33;6.38;;;1.50;;
33279;SDS011;20403;43.114;12.434;2023-10-31T11:05:59;11.32;;;1.50;;
33279;SDS011;20403;43.114;12.434;2023-10-31T11:08:24;6.47;;;1.30;;
33279;SDS011;20403;43.114;12.434;2023-10-31T11:10:51;12.63;;;1.13;;
33279;SDS011;20403;43.114;12.434;2023-10-31T11:13:19;4.60;;;1.20;;
33279;SDS011;20403;43.114;12.434;2023-10-31T11:15:46;5.22;;;1.00;;
33279;SDS011;20403;43.114;12.434;2023-10-31T11:18:16;7.63;;;1.13;;
33279;SDS011;20403;43.114;12.434;2023-10-31T11:20:42;11.73;;;1.83;;
33279;SDS011;20403;43.114;12.434;2023-10-31T11:23:08;9.52;;;1.60;;
33279;SDS011;20403;43.114;12.434;2023-10-31T11:25:33;9.52;;;1.20;;
33279;SDS011;20403;43.114;12.434;2023-10-31T11:28:15;5.10;;;1.30;;
33279;SDS011;20403;43.114;12.434;2023-10-31T11:30:41;7.60;;;1.00;;
33279;SDS011;20403;43.114;12.434;2023-10-31T11:33:13;2.40;;;0.80;;
33279;SDS011;20403;43.114;12.434;2023-10-31T11:35:40;7.28;;;1.10;;
33279;SDS011;20403;43.114;12.434;2023-10-31T11:38:07;7.88;;;1.23;;
33279;SDS011;20403;43.114;12.434;2023-10-31T11:40:35;2.95;;;1.08;;
33279;SDS011;20403;43.114;12.434;2023-10-31T11:43:05;4.53;;;0.80;;
33279;SDS011;20403;43.114;12.434;2023-10-31T11:48:07;6.25;;;0.80;;
33279;SDS011;20403;43.114;12.434;2023-10-31T11:50:35;6.45;;;0.90;;
33279;SDS011;20403;43.114;12.434;2023-10-31T11:53:08;2.40;;;0.70;;
33279;SDS011;20403;43.114;12.434;2023-10-31T11:55:35;4.80;;;1.35;;
33279;SDS011;20403;43.114;12.434;2023-10-31T12:00:51;6.30;;;1.02;;
33279;SDS011;20403;43.114;12.434;2023-10-31T12:03:18;4.18;;;0.60;;
33279;SDS011;20403;43.114;12.434;2023-10-31T12:05:54;6.60;;;1.00;;
33279;SDS011;20403;43.114;12.434;2023-10-31T12:08:27;8.80;;;1.77;;
33279;SDS011;20403;43.114;12.434;2023-10-31T12:11:02;4.35;;;1.00;;
33279;SDS011;20403;43.114;12.434;2023-10-31T12:13:35;5.32;;;1.00;;
33279;SDS011;20403;43.114;12.434;2023-10-31T12:16:08;7.10;;;1.20;;
33279;SDS011;20403;43.114;12.434;2023-10-31T12:18:35;6.32;;;1.40;;
33279;SDS011;20403;43.114;12.434;2023-10-31T12:21:01;6.07;;;1.00;;
33279;SDS011;20403;43.114;12.434;2023-10-31T12:23:27;11.25;;;1.73;;
33279;SDS011;20403;43.114;12.434;2023-10-31T12:25:53;8.52;;;1.50;;
33279;SDS011;20403;43.114;12.434;2023-10-31T12:28:19;2.60;;;0.80;;
33279;SDS011;20403;43.114;12.434;2023-10-31T12:30:49;4.18;;;1.25;;
33279;SDS011;20403;43.114;12.434;2023-10-31T12:33:16;4.13;;;1.45;;
33279;SDS011;20403;43.114;12.434;2023-10-31T12:35:43;7.40;;;1.00;;
33279;SDS011;20403;43.114;12.434;2023-10-31T12:38:10;6.20;;;1.00;;
33279;SDS011;20403;43.114;12.434;2023-10-31T12:40:37;5.88;;;1.27;;
33279;SDS011;20403;43.114;12.434;2023-10-31T12:43:04;6.60;;;0.90;;
33279;SDS011;20403;43.114;12.434;2023-10-31T12:45:30;2.40;;;0.60;;
33279;SDS011;20403;43.114;12.434;2023-10-31T12:48:02;3.22;;;0.70;;
33279;SDS011;20403;43.114;12.434;2023-10-31T12:50:33;3.58;;;0.70;;
33279;SDS011;20403;43.114;12.434;2023-10-31T12:53:01;3.88;;;0.65;;
33279;SDS011;20403;43.114;12.434;2023-10-31T12:55:28;5.15;;;0.88;;
33279;SDS011;20403;43.114;12.434;2023-10-31T12:57:55;4.63;;;1.15;;
33279;SDS011;20403;43.114;12.434;2023-10-31T13:00:22;4.28;;;0.80;;
33279;SDS011;20403;43.114;12.434;2023-10-31T13:02:51;4.20;;;0.60;;
33279;SDS011;20403;43.114;12.434;2023-10-31T13:05:24;6.30;;;0.60;;
33279;SDS011;20403;43.114;12.434;2023-10-31T13:07:51;5.07;;;1.25;;
33279;SDS011;20403;43.114;12.434;2023-10-31T13:10:18;4.68;;;1.00;;
33279;SDS011;20403;43.114;12.434;2023-10-31T13:12:47;2.83;;;0.90;;
33279;SDS011;20403;43.114;12.434;2023-10-31T13:15:14;4.65;;;0.82;;
33279;SDS011;20403;43.114;12.434;2023-10-31T13:17:44;3.85;;;0.63;;
33279;SDS011;20403;43.114;12.434;2023-10-31T13:20:10;2.38;;;0.60;;
33279;SDS011;20403;43.114;12.434;2023-10-31T13:22:37;3.65;;;0.88;;
33279;SDS011;20403;43.114;12.434;2023-10-31T13:25:04;4.07;;;0.82;;
33279;SDS011;20403;43.114;12.434;2023-10-31T13:27:36;6.78;;;1.02;;
33279;SDS011;20403;43.114;12.434;2023-10-31T13:30:02;3.35;;;0.70;;
33279;SDS011;20403;43.114;12.434;2023-10-31T13:32:31;3.33;;;0.75;;
33279;SDS011;20403;43.114;12.434;2023-10-31T13:34:57;6.03;;;0.73;;
33279;SDS011;20403;43.114;12.434;2023-10-31T13:37:22;3.45;;;0.82;;
33279;SDS011;20403;43.114;12.434;2023-10-31T13:39:48;2.92;;;0.75;;
33279;SDS011;20403;43.114;12.434;2023-10-31T13:42:13;1.38;;;0.55;;
33279;SDS011;20403;43.114;12.434;2023-10-31T13:44:42;9.80;;;1.00;;
33279;SDS011;20403;43.114;12.434;2023-10-31T13:47:07;7.72;;;0.63;;
33279;SDS011;20403;43.114;12.434;2023-10-31T13:49:34;5.13;;;0.68;;
33279;SDS011;20403;43.114;12.434;2023-10-31T13:51:59;2.53;;;0.60;;
33279;SDS011;20403;43.114;12.434;2023-10-31T13:54:25;8.55;;;1.08;;
33279;SDS011;20403;43.114;12.434;2023-10-31T13:56:50;3.13;;;0.40;;
33279;SDS011;20403;43.114;12.434;2023-10-31T13:59:16;5.38;;;0.60;;
33279;SDS011;20403;43.114;12.434;2023-10-31T14:01:43;1.20;;;0.40;;
33279;SDS011;20403;43.114;12.434;2023-10-31T14:04:11;1.38;;;0.50;;
33279;SDS011;20403;43.114;12.434;2023-10-31T14:06:40;1.23;;;0.30;;
33279;SDS011;20403;43.114;12.434;2023-10-31T14:09:07;4.45;;;0.52;;
33279;SDS011;20403;43.114;12.434;2023-10-31T14:11:34;2.05;;;0.50;;
33279;SDS011;20403;43.114;12.434;2023-10-31T14:14:00;6.63;;;0.70;;
33279;SDS011;20403;43.114;12.434;2023-10-31T14:16:31;2.70;;;0.40;;
33279;SDS011;20403;43.114;12.434;2023-10-31T14:18:59;4.55;;;0.50;;
33279;SDS011;20403;43.114;12.434;2023-10-31T14:21:24;3.65;;;0.50;;
33279;SDS011;20403;43.114;12.434;2023-10-31T14:23:51;5.07;;;0.90;;
33279;SDS011;20403;43.114;12.434;2023-10-31T14:26:22;1.83;;;0.38;;